createdAt,value
2018-12-04T00:01:21.014Z,11.30
2018-12-04T00:03:48.838Z,11.30
2018-12-04T00:06:16.722Z,11.20
2018-12-04T00:08:44.795Z,11.30
2018-12-04T00:11:12.778Z,11.30
2018-12-04T00:13:40.573Z,11.30
2018-12-04T00:16:08.336Z,11.30
2018-12-04T00:18:36.165Z,11.30
2018-12-04T00:21:03.947Z,11.40
2018-12-04T00:23:31.887Z,11.40
2018-12-04T00:25:59.706Z,11.30
2018-12-04T00:28:27.443Z,11.30
2018-12-04T00:30:55.173Z,11.30
2018-12-04T00:33:22.903Z,11.20
2018-12-04T00:35:50.556Z,11.20
2018-12-04T00:38:18.241Z,11.10
2018-12-04T00:40:45.972Z,11.00
2018-12-04T00:43:14.089Z,11.00
2018-12-04T00:45:42.034Z,11.00
2018-12-04T00:48:09.806Z,11.00
2018-12-04T00:50:37.565Z,10.90
2018-12-04T00:53:08.322Z,10.90
2018-12-04T00:55:37.603Z,10.90
2018-12-04T00:58:05.838Z,10.90
2018-12-04T01:00:33.710Z,10.80
2018-12-04T01:03:01.499Z,10.80
2018-12-04T01:05:29.477Z,10.80
2018-12-04T01:07:57.281Z,10.90
2018-12-04T01:10:25.000Z,10.90
2018-12-04T01:12:52.926Z,10.90
2018-12-04T01:15:20.633Z,10.90
2018-12-04T01:17:48.501Z,11.00
2018-12-04T01:20:16.459Z,11.00
2018-12-04T01:22:44.425Z,11.10
2018-12-04T01:25:12.339Z,11.10
2018-12-04T01:27:40.078Z,11.10
2018-12-04T01:30:08.054Z,11.10
2018-12-04T01:32:35.875Z,11.10
2018-12-04T01:35:04.055Z,11.10
2018-12-04T01:37:31.818Z,11.10
2018-12-04T01:39:59.779Z,11.10
2018-12-04T01:42:27.428Z,11.00
2018-12-04T01:44:55.231Z,11.00
2018-12-04T01:47:23.172Z,11.00
2018-12-04T01:49:51.004Z,11.00
2018-12-04T01:52:18.678Z,10.90
2018-12-04T01:54:46.536Z,10.90
2018-12-04T01:57:14.307Z,10.90
2018-12-04T01:59:42.100Z,10.90
2018-12-04T02:02:09.986Z,10.90
2018-12-04T02:04:37.703Z,10.90
2018-12-04T02:07:05.514Z,10.90
2018-12-04T02:09:33.421Z,10.90
2018-12-04T02:12:01.150Z,11.00
2018-12-04T02:14:28.930Z,11.00
2018-12-04T02:16:56.856Z,11.00
2018-12-04T02:19:24.631Z,11.00
2018-12-04T02:21:52.281Z,11.00
2018-12-04T02:24:19.952Z,11.00
2018-12-04T02:26:47.603Z,11.00
2018-12-04T02:29:15.414Z,11.00
2018-12-04T02:31:43.100Z,11.00
2018-12-04T02:34:10.861Z,11.00
2018-12-04T02:36:38.666Z,11.00
2018-12-04T02:39:07.472Z,11.00
2018-12-04T02:41:36.317Z,11.00
2018-12-04T02:44:04.178Z,11.00
2018-12-04T02:46:31.910Z,11.00
2018-12-04T02:49:00.077Z,11.00
2018-12-04T02:51:27.883Z,11.00
2018-12-04T02:53:55.752Z,11.00
2018-12-04T02:56:23.465Z,11.00
2018-12-04T02:58:51.278Z,11.00
2018-12-04T03:01:19.120Z,11.00
2018-12-04T03:03:47.015Z,11.00
2018-12-04T03:06:14.864Z,11.00
2018-12-04T03:08:42.638Z,11.00
2018-12-04T03:11:10.474Z,10.90
2018-12-04T03:13:38.188Z,10.90
2018-12-04T03:16:06.104Z,10.90
2018-12-04T03:18:33.909Z,10.90
2018-12-04T03:21:01.951Z,10.90
2018-12-04T03:23:29.753Z,10.90
2018-12-04T03:25:57.523Z,10.90
2018-12-04T03:28:25.267Z,10.90
2018-12-04T03:30:55.308Z,10.90
2018-12-04T03:33:42.955Z,10.90
2018-12-04T03:36:10.724Z,10.90
2018-12-04T03:38:38.544Z,10.90
2018-12-04T03:41:06.369Z,10.90
2018-12-04T03:43:34.147Z,10.80
2018-12-04T03:46:02.296Z,10.80
2018-12-04T03:48:30.324Z,10.80
2018-12-04T03:50:58.292Z,10.80
2018-12-04T03:53:26.085Z,10.80
2018-12-04T03:55:53.925Z,10.80
2018-12-04T03:58:21.762Z,10.80
2018-12-04T04:00:49.443Z,10.80
2018-12-04T04:03:17.153Z,10.80
2018-12-04T04:05:44.841Z,10.80
2018-12-04T04:08:12.531Z,10.80
2018-12-04T04:10:40.279Z,10.80
2018-12-04T04:13:08.006Z,10.70
2018-12-04T04:15:36.121Z,10.70
2018-12-04T04:18:03.922Z,10.70
2018-12-04T04:20:31.631Z,10.70
2018-12-04T04:22:59.317Z,10.70
2018-12-04T04:25:26.951Z,10.70
2018-12-04T04:27:54.618Z,10.70
2018-12-04T04:30:22.289Z,10.70
2018-12-04T04:32:50.080Z,10.70
2018-12-04T04:35:19.795Z,10.70
2018-12-04T04:37:47.489Z,10.70
2018-12-04T04:40:15.198Z,10.70
2018-12-04T04:42:42.882Z,10.70
2018-12-04T04:45:10.644Z,10.70
2018-12-04T04:47:38.299Z,10.70
2018-12-04T04:50:06.153Z,10.70
2018-12-04T04:52:33.826Z,10.80
2018-12-04T04:55:01.518Z,10.80
2018-12-04T04:57:29.667Z,10.80
2018-12-04T04:59:57.315Z,10.80
2018-12-04T05:02:24.998Z,10.80
2018-12-04T05:04:52.782Z,10.70
2018-12-04T05:07:20.502Z,10.70
2018-12-04T05:09:49.839Z,10.70
2018-12-04T05:12:17.706Z,10.70
2018-12-04T05:14:45.408Z,10.70
2018-12-04T05:17:13.189Z,10.60
2018-12-04T05:19:40.863Z,10.50
2018-12-04T05:22:08.548Z,10.50
2018-12-04T05:24:36.232Z,10.40
2018-12-04T05:27:03.948Z,10.30
2018-12-04T05:29:31.624Z,10.30
2018-12-04T05:31:59.404Z,10.20
2018-12-04T05:34:27.114Z,10.20
2018-12-04T05:36:54.755Z,10.20
2018-12-04T05:39:22.497Z,10.20
2018-12-04T05:41:50.280Z,10.20
2018-12-04T05:44:17.971Z,10.20
2018-12-04T05:46:45.682Z,10.20
2018-12-04T05:49:13.723Z,10.20
2018-12-04T05:51:41.536Z,10.10
2018-12-04T05:54:14.021Z,10.10
2018-12-04T05:56:42.396Z,10.10
2018-12-04T05:59:10.279Z,10.10
2018-12-04T06:01:38.098Z,10.10
2018-12-04T06:04:05.762Z,10.10
2018-12-04T06:06:33.440Z,10.10
2018-12-04T06:09:01.134Z,10.10
2018-12-04T06:11:30.880Z,10.10
2018-12-04T06:13:58.550Z,10.10
2018-12-04T06:16:26.204Z,10.10
2018-12-04T06:18:53.863Z,10.10
2018-12-04T06:21:21.521Z,10.10
2018-12-04T06:23:49.271Z,10.10
2018-12-04T06:26:17.440Z,10.10
2018-12-04T06:28:45.223Z,10.10
2018-12-04T06:31:12.924Z,10.00
2018-12-04T06:33:40.602Z,10.10
2018-12-04T06:36:08.274Z,10.10
2018-12-04T06:38:35.990Z,10.10
2018-12-04T06:41:03.834Z,10.10
2018-12-04T06:43:31.561Z,10.00
2018-12-04T06:45:59.332Z,10.00
2018-12-04T06:48:27.010Z,10.00
2018-12-04T06:50:54.671Z,9.90
2018-12-04T06:53:29.428Z,9.90
2018-12-04T06:55:57.151Z,9.90
2018-12-04T06:58:31.767Z,9.90
2018-12-04T07:00:59.595Z,9.90
2018-12-04T07:03:27.430Z,9.90
2018-12-04T07:05:56.075Z,9.80
2018-12-04T07:08:24.279Z,9.90
2018-12-04T07:10:52.008Z,9.90
2018-12-04T07:13:23.550Z,9.90
2018-12-04T07:15:51.243Z,9.90
2018-12-04T07:18:18.980Z,9.90
2018-12-04T07:20:46.856Z,9.90
2018-12-04T07:23:14.536Z,9.80
2018-12-04T07:25:42.181Z,9.80
2018-12-04T07:28:09.854Z,9.80
2018-12-04T07:30:37.580Z,9.80
2018-12-04T07:33:05.268Z,9.80
2018-12-04T07:35:32.951Z,9.80
2018-12-04T07:38:00.611Z,9.80
2018-12-04T07:40:28.278Z,9.80
2018-12-04T07:42:55.949Z,9.90
2018-12-04T07:45:23.779Z,9.80
2018-12-04T07:47:51.596Z,9.90
2018-12-04T07:50:19.380Z,9.90
2018-12-04T07:52:47.058Z,9.90
2018-12-04T07:55:14.763Z,9.90
2018-12-04T07:57:42.806Z,9.90
2018-12-04T08:00:10.835Z,9.80
2018-12-04T08:02:38.644Z,9.80
2018-12-04T08:05:06.340Z,9.80
2018-12-04T08:07:34.060Z,9.80
2018-12-04T08:10:01.758Z,9.80
2018-12-04T08:12:29.828Z,9.90
2018-12-04T08:14:57.490Z,9.90
2018-12-04T08:17:25.242Z,9.90
2018-12-04T08:19:52.902Z,9.90
2018-12-04T08:22:20.653Z,9.90
2018-12-04T08:24:48.411Z,9.90
2018-12-04T08:27:50.002Z,10.00
2018-12-04T08:30:20.509Z,10.00
2018-12-04T08:32:48.239Z,10.10
2018-12-04T08:35:31.797Z,10.20
2018-12-04T08:37:59.497Z,10.30
2018-12-04T08:40:28.103Z,10.40
2018-12-04T08:42:55.833Z,10.50
2018-12-04T08:45:29.339Z,10.60
2018-12-04T08:47:57.100Z,10.80
2018-12-04T08:50:29.380Z,11.10
2018-12-04T08:52:57.344Z,11.40
2018-12-04T08:55:25.119Z,11.70
2018-12-04T08:57:52.860Z,11.80
2018-12-04T09:00:20.677Z,11.90
2018-12-04T09:02:49.017Z,11.90
2018-12-04T09:05:16.745Z,11.90
2018-12-04T09:07:44.577Z,12.00
2018-12-04T09:10:12.215Z,11.90
2018-12-04T09:12:40.326Z,11.70
2018-12-04T09:15:09.326Z,11.60
2018-12-04T09:17:38.983Z,11.40
2018-12-04T09:20:07.671Z,11.30
2018-12-04T09:22:35.539Z,11.20
2018-12-04T09:25:04.135Z,11.10
2018-12-04T09:27:32.018Z,11.00
2018-12-04T09:30:00.860Z,10.90
2018-12-04T09:32:32.697Z,10.90
2018-12-04T09:35:00.564Z,10.90
2018-12-04T09:37:29.751Z,10.90
2018-12-04T09:39:57.760Z,10.90
2018-12-04T09:42:25.761Z,11.00
2018-12-04T09:44:53.631Z,11.20
2018-12-04T09:47:21.367Z,11.30
2018-12-04T09:49:49.214Z,11.40
2018-12-04T09:52:17.251Z,11.40
2018-12-04T09:54:45.407Z,11.40
2018-12-04T09:57:13.100Z,11.40
2018-12-04T09:59:42.019Z,11.40
2018-12-04T10:02:09.822Z,11.40
2018-12-04T10:04:37.548Z,11.30
2018-12-04T10:07:05.224Z,11.30
2018-12-04T10:09:33.080Z,11.40
2018-12-04T10:12:00.852Z,11.40
2018-12-04T10:14:28.631Z,11.40
2018-12-04T10:16:56.907Z,11.50
2018-12-04T10:19:24.690Z,11.70
2018-12-04T10:21:52.395Z,11.80
2018-12-04T10:24:20.100Z,11.90
2018-12-04T10:26:52.299Z,12.10
2018-12-04T10:29:20.006Z,12.30
2018-12-04T10:31:47.694Z,12.60
2018-12-04T10:34:15.607Z,12.80
2018-12-04T10:36:43.325Z,13.00
2018-12-04T10:39:11.036Z,13.20
2018-12-04T10:41:39.052Z,13.30
2018-12-04T10:44:07.772Z,13.40
2018-12-04T10:46:35.593Z,13.50
2018-12-04T10:49:03.594Z,13.50
2018-12-04T10:51:31.343Z,13.50
2018-12-04T10:53:59.022Z,13.50
2018-12-04T10:56:26.679Z,13.40
2018-12-04T10:58:54.403Z,13.30
2018-12-04T11:01:24.514Z,13.30
2018-12-04T11:03:52.218Z,13.30
2018-12-04T11:06:19.909Z,13.40
2018-12-04T11:08:47.699Z,13.50
2018-12-04T11:11:15.383Z,13.50
2018-12-04T11:13:43.063Z,13.50
2018-12-04T11:16:10.948Z,13.40
2018-12-04T11:18:38.716Z,13.30
2018-12-04T11:21:06.788Z,13.20
2018-12-04T11:23:35.534Z,13.10
2018-12-04T11:26:03.385Z,12.90
2018-12-04T11:28:31.364Z,12.90
2018-12-04T11:30:59.124Z,12.90
2018-12-04T11:33:26.984Z,12.80
2018-12-04T11:35:54.850Z,12.70
2018-12-04T11:38:22.672Z,12.70
2018-12-04T11:40:50.481Z,12.60
2018-12-04T11:43:18.309Z,12.60
2018-12-04T11:45:47.175Z,12.60
2018-12-04T11:48:15.118Z,12.60
2018-12-04T11:50:43.057Z,12.50
2018-12-04T11:53:10.759Z,12.40
2018-12-04T11:55:38.617Z,12.30
2018-12-04T11:58:06.346Z,12.10
2018-12-04T12:00:35.529Z,11.80
2018-12-04T12:03:03.387Z,11.60
2018-12-04T12:05:31.265Z,11.40
2018-12-04T12:08:01.013Z,11.20
2018-12-04T12:10:28.867Z,11.10
2018-12-04T12:12:56.706Z,11.00
2018-12-04T12:15:24.415Z,11.00
2018-12-04T12:17:52.168Z,10.90
2018-12-04T12:20:19.996Z,10.90
2018-12-04T12:22:47.872Z,10.90
2018-12-04T12:25:15.699Z,10.90
2018-12-04T12:27:43.567Z,10.90
2018-12-04T12:30:11.389Z,10.90
2018-12-04T12:32:39.173Z,10.80
2018-12-04T12:35:07.513Z,10.80
2018-12-04T12:37:35.375Z,10.80
2018-12-04T12:40:04.260Z,10.70
2018-12-04T12:42:32.042Z,10.70
2018-12-04T12:44:59.766Z,10.70
2018-12-04T12:47:27.562Z,10.70
2018-12-04T12:49:55.340Z,10.60
2018-12-04T12:52:23.046Z,10.60
2018-12-04T12:54:50.813Z,10.60
2018-12-04T12:57:18.613Z,10.60
2018-12-04T12:59:46.330Z,10.50
2018-12-04T13:02:13.992Z,10.50
2018-12-04T13:04:41.658Z,10.40
2018-12-04T13:07:09.295Z,10.30
2018-12-04T13:09:37.100Z,10.30
2018-12-04T13:12:04.848Z,10.30
2018-12-04T13:14:33.679Z,10.20
2018-12-04T13:17:01.415Z,10.10
2018-12-04T13:19:29.466Z,10.10
2018-12-04T13:21:57.262Z,10.00
2018-12-04T13:24:24.925Z,10.00
2018-12-04T13:26:52.673Z,10.00
2018-12-04T13:29:20.535Z,10.00
2018-12-04T13:31:48.278Z,10.00
2018-12-04T13:34:16.174Z,10.00
2018-12-04T13:36:43.946Z,10.10
2018-12-04T13:39:11.737Z,10.10
2018-12-04T13:41:39.546Z,10.20
2018-12-04T13:44:07.329Z,10.10
2018-12-04T13:46:35.120Z,10.20
2018-12-04T13:49:02.871Z,10.20
2018-12-04T13:51:30.843Z,10.20
2018-12-04T13:54:00.087Z,10.30
2018-12-04T13:56:28.181Z,10.40
2018-12-04T13:58:56.032Z,10.50
2018-12-04T14:01:23.845Z,10.50
2018-12-04T14:03:51.571Z,10.50
2018-12-04T14:06:19.285Z,10.50
2018-12-04T14:08:47.084Z,10.50
2018-12-04T14:11:14.809Z,10.50
2018-12-04T14:13:42.526Z,10.50
2018-12-04T14:16:10.339Z,10.50
2018-12-04T14:18:38.118Z,10.40
2018-12-04T14:21:05.940Z,10.40
2018-12-04T14:23:33.849Z,10.30
2018-12-04T14:26:01.542Z,10.30
2018-12-04T14:28:30.251Z,10.30
2018-12-04T14:30:58.095Z,10.30
2018-12-04T14:33:25.860Z,10.30
2018-12-04T14:35:53.854Z,10.20
2018-12-04T14:38:24.651Z,10.20
2018-12-04T14:40:51.380Z,10.10
2018-12-04T14:43:19.068Z,10.00
2018-12-04T14:45:46.840Z,10.00
2018-12-04T14:48:14.543Z,10.00
2018-12-04T14:50:42.290Z,10.00
2018-12-04T14:53:10.161Z,10.00
2018-12-04T14:55:38.211Z,10.00
2018-12-04T14:58:06.390Z,9.90
2018-12-04T15:00:37.073Z,9.90
2018-12-04T15:03:04.994Z,9.90
2018-12-04T15:05:32.925Z,9.90
2018-12-04T15:08:00.859Z,9.90
2018-12-04T15:10:28.638Z,9.90
2018-12-04T15:12:56.425Z,9.90
2018-12-04T15:15:24.797Z,9.80
2018-12-04T15:17:52.694Z,9.80
2018-12-04T15:20:20.524Z,9.80
2018-12-04T15:22:48.328Z,9.80
2018-12-04T15:25:16.190Z,9.70
2018-12-04T15:27:44.120Z,9.70
2018-12-04T15:30:11.883Z,9.70
2018-12-04T15:32:39.604Z,9.70
2018-12-04T15:35:07.480Z,9.70
2018-12-04T15:37:35.328Z,9.60
2018-12-04T15:40:04.271Z,9.50
2018-12-04T15:42:32.094Z,9.50
2018-12-04T15:45:09.555Z,9.50
2018-12-04T15:47:37.268Z,9.40
2018-12-04T15:50:29.286Z,9.40
2018-12-04T15:52:57.117Z,9.40
2018-12-04T15:55:24.874Z,9.40
2018-12-04T15:57:52.568Z,9.40
2018-12-04T16:00:25.014Z,9.30
2018-12-04T16:02:54.028Z,9.30
2018-12-04T16:05:21.730Z,9.30
2018-12-04T16:07:49.554Z,9.30
2018-12-04T16:10:17.320Z,9.20
2018-12-04T16:12:45.177Z,9.30
2018-12-04T16:15:13.092Z,9.20
2018-12-04T16:17:41.222Z,9.20
2018-12-04T16:20:09.211Z,9.20
2018-12-04T16:22:37.060Z,9.20
2018-12-04T16:25:06.599Z,9.20
2018-12-04T16:27:34.454Z,9.20
2018-12-04T16:30:02.286Z,9.20
2018-12-04T16:32:30.063Z,9.20
2018-12-04T16:34:57.815Z,9.20
2018-12-04T16:37:26.392Z,9.10
2018-12-04T16:39:54.143Z,9.10
2018-12-04T16:42:21.894Z,9.10
2018-12-04T16:44:49.631Z,9.10
2018-12-04T16:47:17.560Z,9.10
2018-12-04T16:49:45.586Z,9.10
2018-12-04T16:52:13.386Z,9.10
2018-12-04T16:54:41.122Z,9.10
2018-12-04T16:57:09.071Z,9.10
2018-12-04T16:59:36.867Z,9.10
2018-12-04T17:02:04.835Z,9.10
2018-12-04T17:04:32.583Z,9.10
2018-12-04T17:07:00.307Z,9.10
2018-12-04T17:09:28.043Z,9.10
2018-12-04T17:11:55.734Z,9.10
2018-12-04T17:14:35.865Z,9.00
2018-12-04T17:17:04.654Z,9.00
2018-12-04T17:19:34.188Z,9.00
2018-12-04T17:22:01.879Z,9.00
2018-12-04T17:24:29.960Z,9.00
2018-12-04T17:26:57.732Z,9.00
2018-12-04T17:29:25.492Z,9.00
2018-12-04T17:31:53.258Z,9.00
2018-12-04T17:34:21.063Z,9.00
2018-12-04T17:36:48.800Z,9.00
2018-12-04T17:39:16.611Z,9.00
2018-12-04T17:41:47.357Z,8.90
2018-12-04T17:44:15.194Z,9.00
2018-12-04T17:46:43.056Z,8.90
2018-12-04T17:49:10.763Z,8.90
2018-12-04T17:51:38.524Z,8.90
2018-12-04T17:54:06.351Z,8.80
2018-12-04T17:56:35.307Z,8.80
2018-12-04T17:59:03.085Z,8.80
2018-12-04T18:01:30.879Z,8.70
2018-12-04T18:04:00.554Z,8.70
2018-12-04T18:06:28.331Z,8.70
2018-12-04T18:08:57.594Z,8.60
2018-12-04T18:11:27.572Z,8.60
2018-12-04T18:13:55.432Z,8.60
2018-12-04T18:16:23.125Z,8.50
2018-12-04T18:18:50.964Z,8.50
2018-12-04T18:21:18.904Z,8.50
2018-12-04T18:23:46.801Z,8.40
2018-12-04T18:26:14.576Z,8.40
2018-12-04T18:28:42.414Z,8.40
2018-12-04T18:31:10.105Z,8.30
2018-12-04T18:33:38.615Z,8.30
2018-12-04T18:36:06.559Z,8.20
2018-12-04T18:38:34.410Z,8.20
2018-12-04T18:41:02.190Z,8.20
2018-12-04T18:43:30.292Z,8.20
2018-12-04T18:45:58.599Z,8.10
2018-12-04T18:48:26.435Z,8.10
2018-12-04T18:50:54.284Z,8.10
2018-12-04T18:53:22.195Z,8.00
2018-12-04T18:55:49.921Z,8.00
2018-12-04T18:58:17.793Z,8.00
2018-12-04T19:00:45.568Z,8.00
2018-12-04T19:03:13.400Z,7.90
2018-12-04T19:05:41.225Z,7.90
2018-12-04T19:08:09.052Z,7.80
2018-12-04T19:10:36.916Z,7.80
2018-12-04T19:13:05.299Z,7.70
2018-12-04T19:15:33.091Z,7.70
2018-12-04T19:18:00.860Z,7.60
2018-12-04T19:20:28.944Z,7.60
2018-12-04T19:22:56.719Z,7.60
2018-12-04T19:25:24.614Z,7.60
2018-12-04T19:27:53.053Z,7.60
2018-12-04T19:30:21.217Z,7.60
2018-12-04T19:32:49.060Z,7.60
2018-12-04T19:35:16.862Z,7.60
2018-12-04T19:37:45.202Z,7.60
2018-12-04T19:40:13.299Z,7.50
2018-12-04T19:42:43.987Z,7.50
2018-12-04T19:45:12.473Z,7.50
2018-12-04T19:47:40.273Z,7.50
2018-12-04T19:50:08.455Z,7.40
2018-12-04T19:52:36.220Z,7.40
2018-12-04T19:55:04.525Z,7.30
2018-12-04T19:57:32.337Z,7.30
2018-12-04T20:00:01.238Z,7.20
2018-12-04T20:02:29.427Z,7.10
2018-12-04T20:04:57.266Z,7.00
2018-12-04T20:07:25.007Z,6.90
2018-12-04T20:09:52.966Z,6.90
2018-12-04T20:12:20.687Z,6.70
2018-12-04T20:14:48.499Z,6.50
2018-12-04T20:17:16.227Z,6.40
2018-12-04T20:19:44.028Z,6.30
2018-12-04T20:22:11.998Z,6.20
2018-12-04T20:24:40.889Z,6.10
2018-12-04T20:27:08.815Z,6.00
2018-12-04T20:29:36.515Z,5.90
2018-12-04T20:32:04.231Z,5.90
2018-12-04T20:34:32.039Z,5.80
2018-12-04T20:36:59.719Z,5.80
2018-12-04T20:39:27.455Z,5.70
2018-12-04T20:41:55.222Z,5.60
2018-12-04T20:44:22.946Z,5.60
2018-12-04T20:46:50.659Z,5.60
2018-12-04T20:49:18.490Z,5.50
2018-12-04T20:51:46.528Z,5.50
2018-12-04T20:54:14.259Z,5.40
2018-12-04T20:56:42.088Z,5.40
2018-12-04T20:59:09.862Z,5.40
2018-12-04T21:01:38.094Z,5.40
2018-12-04T21:04:06.557Z,5.40
2018-12-04T21:06:34.313Z,5.40
2018-12-04T21:09:02.451Z,5.30
2018-12-04T21:11:32.300Z,5.30
2018-12-04T21:14:00.034Z,5.30
2018-12-04T21:16:27.865Z,5.30
2018-12-04T21:18:55.638Z,5.30
2018-12-04T21:21:23.448Z,5.30
2018-12-04T21:23:51.161Z,5.20
2018-12-04T21:26:18.930Z,5.30
2018-12-04T21:28:52.120Z,5.20
2018-12-04T21:31:25.392Z,5.20
2018-12-04T21:33:58.892Z,5.20
2018-12-04T21:36:32.524Z,5.10
2018-12-04T21:39:05.871Z,5.10
2018-12-04T21:41:41.739Z,5.10
2018-12-04T21:44:15.277Z,5.10
2018-12-04T21:46:48.827Z,5.10
2018-12-04T21:49:16.560Z,5.10
2018-12-04T21:51:44.986Z,5.10
2018-12-04T21:54:13.006Z,5.10
2018-12-04T21:56:43.550Z,5.10
2018-12-04T21:59:11.423Z,5.10
2018-12-04T22:01:42.385Z,5.10
2018-12-04T22:04:10.427Z,5.10
2018-12-04T22:06:38.228Z,5.00
2018-12-04T22:09:08.226Z,5.00
2018-12-04T22:11:37.178Z,5.00
2018-12-04T22:14:04.944Z,5.00
2018-12-04T22:16:32.748Z,5.00
2018-12-04T22:19:00.520Z,5.00
2018-12-04T22:21:28.397Z,5.00
2018-12-04T22:23:56.117Z,5.00
2018-12-04T22:26:23.980Z,5.00
2018-12-04T22:28:51.752Z,5.00
2018-12-04T22:31:19.598Z,4.90
2018-12-04T22:33:48.147Z,4.90
2018-12-04T22:36:16.168Z,4.90
2018-12-04T22:38:44.833Z,4.90
2018-12-04T22:41:13.175Z,4.90
2018-12-04T22:43:41.240Z,4.90
2018-12-04T22:46:09.196Z,4.80
2018-12-04T22:48:37.015Z,4.80
2018-12-04T22:51:04.722Z,4.80
2018-12-04T22:53:32.428Z,4.80
2018-12-04T22:56:00.099Z,4.80
2018-12-04T22:58:27.751Z,4.70
2018-12-04T23:00:55.733Z,4.70
2018-12-04T23:03:25.579Z,4.70
2018-12-04T23:05:54.169Z,4.70
2018-12-04T23:08:21.973Z,4.70
2018-12-04T23:10:49.675Z,4.60
2018-12-04T23:13:17.644Z,4.60
2018-12-04T23:15:45.588Z,4.50
2018-12-04T23:18:13.383Z,4.50
2018-12-04T23:20:41.086Z,4.50
2018-12-04T23:23:09.016Z,4.50
2018-12-04T23:25:36.752Z,4.60
2018-12-04T23:28:04.621Z,4.60
2018-12-04T23:30:32.343Z,4.60
2018-12-04T23:33:00.144Z,4.70
2018-12-04T23:35:27.839Z,4.70
2018-12-04T23:37:55.502Z,4.70
2018-12-04T23:40:23.177Z,4.70
2018-12-04T23:42:50.815Z,4.60
2018-12-04T23:45:18.518Z,4.50
2018-12-04T23:47:46.228Z,4.50
2018-12-04T23:50:13.995Z,4.40
2018-12-04T23:52:41.673Z,4.40
2018-12-04T23:55:09.333Z,4.40
2018-12-04T23:57:37.026Z,4.50
